createdAt,value
2023-04-29T00:01:45.700Z,11.46
2023-04-29T00:04:14.402Z,11.44
2023-04-29T00:06:42.194Z,11.48
2023-04-29T00:09:09.937Z,11.49
2023-04-29T00:11:37.312Z,11.51
2023-04-29T00:14:04.807Z,11.49
2023-04-29T00:16:32.208Z,11.40
2023-04-29T00:19:00.200Z,11.38
2023-04-29T00:21:27.788Z,11.38
2023-04-29T00:23:55.519Z,11.39
2023-04-29T00:26:23.020Z,11.40
2023-04-29T00:28:50.722Z,11.33
2023-04-29T00:31:18.454Z,11.35
2023-04-29T00:33:47.037Z,11.31
2023-04-29T00:36:14.724Z,11.28
2023-04-29T00:38:42.415Z,11.31
2023-04-29T00:41:10.216Z,11.29
2023-04-29T00:43:37.727Z,11.34
2023-04-29T00:46:05.146Z,11.38
2023-04-29T00:48:33.431Z,11.38
2023-04-29T00:51:01.423Z,11.32
2023-04-29T00:53:29.219Z,11.23
2023-04-29T00:55:57.115Z,11.20
2023-04-29T00:58:30.737Z,11.22
2023-04-29T01:00:58.735Z,11.19
2023-04-29T01:03:26.897Z,11.22
2023-04-29T01:06:03.228Z,11.19
2023-04-29T01:08:37.123Z,11.23
2023-04-29T01:11:11.723Z,11.21
2023-04-29T01:13:47.227Z,11.22
2023-04-29T01:16:38.818Z,11.24
2023-04-29T01:19:45.888Z,11.22
2023-04-29T01:22:14.730Z,11.15
2023-04-29T01:24:42.447Z,11.13
2023-04-29T01:27:33.238Z,11.15
2023-04-29T01:30:24.980Z,11.16
2023-04-29T01:32:52.799Z,11.13
2023-04-29T01:35:35.079Z,11.13
2023-04-29T01:38:12.240Z,11.16
2023-04-29T01:40:50.274Z,11.18
2023-04-29T01:43:18.761Z,11.14
2023-04-29T01:45:45.937Z,11.15
2023-04-29T01:48:13.767Z,11.16
2023-04-29T01:50:41.341Z,11.17
2023-04-29T01:53:09.255Z,11.17
2023-04-29T01:55:37.009Z,11.14
2023-04-29T01:58:04.384Z,11.16
2023-04-29T02:00:32.214Z,11.18
2023-04-29T02:02:59.907Z,11.20
2023-04-29T02:05:27.250Z,11.16
2023-04-29T02:07:55.102Z,11.18
2023-04-29T02:10:22.595Z,11.15
2023-04-29T02:12:50.029Z,11.13
2023-04-29T02:15:18.261Z,11.15
2023-04-29T02:17:46.991Z,11.13
2023-04-29T02:20:14.483Z,11.14
2023-04-29T02:22:43.017Z,11.16
2023-04-29T02:25:11.553Z,11.18
2023-04-29T02:27:39.270Z,11.16
2023-04-29T02:30:07.497Z,11.15
2023-04-29T02:32:36.169Z,11.17
2023-04-29T02:35:04.276Z,11.19
2023-04-29T02:37:32.129Z,11.19
2023-04-29T02:39:59.793Z,11.20
2023-04-29T02:42:27.163Z,11.21
2023-04-29T02:44:55.036Z,11.20
2023-04-29T02:47:22.807Z,11.21
2023-04-29T02:49:51.120Z,11.22
2023-04-29T02:52:19.226Z,11.24
2023-04-29T02:54:47.041Z,11.22
2023-04-29T02:57:14.412Z,11.18
2023-04-29T02:59:42.241Z,11.16
2023-04-29T03:02:10.143Z,11.15
2023-04-29T03:04:38.050Z,11.19
2023-04-29T03:07:05.668Z,11.21
2023-04-29T03:09:33.524Z,11.20
2023-04-29T03:12:01.256Z,11.19
2023-04-29T03:14:29.058Z,11.19
2023-04-29T03:16:56.887Z,11.18
2023-04-29T03:19:24.296Z,11.24
2023-04-29T03:21:53.841Z,11.24
2023-04-29T03:24:22.059Z,11.26
2023-04-29T03:26:49.819Z,11.26
2023-04-29T03:29:17.708Z,11.27
2023-04-29T03:31:45.328Z,11.28
2023-04-29T03:34:15.064Z,11.28
2023-04-29T03:36:42.542Z,11.27
2023-04-29T03:39:10.168Z,11.28
2023-04-29T03:41:37.537Z,11.20
2023-04-29T03:44:05.649Z,11.16
2023-04-29T03:46:33.325Z,11.15
2023-04-29T03:49:01.302Z,11.15
2023-04-29T03:51:30.084Z,11.17
2023-04-29T03:53:58.282Z,11.19
2023-04-29T03:56:25.868Z,11.16
2023-04-29T03:58:53.549Z,11.19
2023-04-29T04:01:21.260Z,11.12
2023-04-29T04:03:49.274Z,11.17
2023-04-29T04:06:16.936Z,11.20
2023-04-29T04:08:44.558Z,11.21
2023-04-29T04:11:15.298Z,11.19
2023-04-29T04:13:43.557Z,11.16
2023-04-29T04:16:11.882Z,11.10
2023-04-29T04:18:40.004Z,11.01
2023-04-29T04:21:09.091Z,10.88
2023-04-29T04:23:36.845Z,10.85
2023-04-29T04:26:04.561Z,10.89
2023-04-29T04:28:32.095Z,10.87
2023-04-29T04:30:59.569Z,10.85
2023-04-29T04:33:27.739Z,10.88
2023-04-29T04:35:55.572Z,10.90
2023-04-29T04:38:25.856Z,10.87
2023-04-29T04:40:53.339Z,10.91
2023-04-29T04:43:21.578Z,10.97
2023-04-29T04:45:49.153Z,11.03
2023-04-29T04:48:17.041Z,11.05
2023-04-29T04:50:44.582Z,11.07
2023-04-29T04:53:12.116Z,11.06
2023-04-29T04:55:39.385Z,11.08
2023-04-29T04:58:06.950Z,11.12
2023-04-29T05:00:34.316Z,11.16
2023-04-29T05:03:02.067Z,11.18
2023-04-29T05:05:29.596Z,11.30
2023-04-29T05:07:57.309Z,11.41
2023-04-29T05:10:27.129Z,11.41
2023-04-29T05:12:54.608Z,11.45
2023-04-29T05:15:22.315Z,11.41
2023-04-29T05:17:49.900Z,11.44
2023-04-29T05:20:17.601Z,11.50
2023-04-29T05:22:45.604Z,11.47
2023-04-29T05:25:13.451Z,11.53
2023-04-29T05:27:40.884Z,11.57
2023-04-29T05:30:08.974Z,11.60
2023-04-29T05:32:36.542Z,11.52
2023-04-29T05:35:06.703Z,11.51
2023-04-29T05:37:34.887Z,11.48
2023-04-29T05:40:02.374Z,11.52
2023-04-29T05:42:30.617Z,11.53
2023-04-29T05:44:58.149Z,11.55
2023-04-29T05:47:25.437Z,11.56
2023-04-29T05:49:53.535Z,11.59
2023-04-29T05:52:21.367Z,11.69
2023-04-29T05:54:49.156Z,11.75
2023-04-29T05:57:17.159Z,11.77
2023-04-29T05:59:44.900Z,11.82
2023-04-29T06:02:12.842Z,11.85
2023-04-29T06:04:41.949Z,11.84
2023-04-29T06:07:09.444Z,11.87
2023-04-29T06:09:37.172Z,11.93
2023-04-29T06:12:05.173Z,11.90
2023-04-29T06:14:32.686Z,11.83
2023-04-29T06:17:00.646Z,11.84
2023-04-29T06:19:28.359Z,11.88
2023-04-29T06:21:55.919Z,11.89
2023-04-29T06:24:23.653Z,11.97
2023-04-29T06:26:51.180Z,12.05
2023-04-29T06:29:18.812Z,12.08
2023-04-29T06:31:46.430Z,12.13
2023-04-29T06:34:14.291Z,12.10
2023-04-29T06:36:41.912Z,12.23
2023-04-29T06:39:09.392Z,12.38
2023-04-29T06:41:37.301Z,12.49
2023-04-29T06:44:04.940Z,12.51
2023-04-29T06:46:32.869Z,12.57
2023-04-29T06:49:00.664Z,12.61
2023-04-29T06:51:29.304Z,12.53
2023-04-29T06:53:57.026Z,12.56
2023-04-29T06:56:24.827Z,12.49
2023-04-29T06:58:52.406Z,12.50
2023-04-29T07:01:19.995Z,12.53
2023-04-29T07:03:47.802Z,12.54
2023-04-29T07:06:16.214Z,12.59
2023-04-29T07:08:43.385Z,12.60
2023-04-29T07:11:11.407Z,12.54
2023-04-29T07:13:39.318Z,12.56
2023-04-29T07:16:16.283Z,12.55
2023-04-29T07:18:44.058Z,12.59
2023-04-29T07:21:11.688Z,12.64
2023-04-29T07:23:39.416Z,12.67
2023-04-29T07:26:14.343Z,12.63
2023-04-29T07:28:42.687Z,12.56
2023-04-29T07:31:11.116Z,12.56
2023-04-29T07:33:39.058Z,12.58
2023-04-29T07:36:07.626Z,12.70
2023-04-29T07:38:35.330Z,12.76
2023-04-29T07:41:04.858Z,12.84
2023-04-29T07:43:32.703Z,12.94
2023-04-29T07:46:00.724Z,12.97
2023-04-29T07:48:28.487Z,13.12
2023-04-29T07:50:56.251Z,13.26
2023-04-29T07:53:24.084Z,13.33
2023-04-29T07:55:51.862Z,13.45
2023-04-29T07:58:19.429Z,13.48
2023-04-29T08:00:47.434Z,13.57
2023-04-29T08:03:15.453Z,13.70
2023-04-29T08:05:43.886Z,13.95
2023-04-29T08:08:11.421Z,14.20
2023-04-29T08:10:41.348Z,14.39
2023-04-29T08:13:09.247Z,14.56
2023-04-29T08:15:37.096Z,14.83
2023-04-29T08:18:04.743Z,14.98
2023-04-29T08:20:32.720Z,15.13
2023-04-29T08:23:01.261Z,15.20
2023-04-29T08:25:29.726Z,15.25
2023-04-29T08:27:58.256Z,15.47
2023-04-29T08:30:25.982Z,15.56
2023-04-29T08:32:53.757Z,15.64
2023-04-29T08:35:21.268Z,15.57
2023-04-29T08:37:49.112Z,15.59
2023-04-29T08:40:16.740Z,15.59
2023-04-29T08:42:47.440Z,15.56
2023-04-29T08:45:20.997Z,15.65
2023-04-29T08:47:49.868Z,15.82
2023-04-29T08:50:18.517Z,15.85
2023-04-29T08:52:46.377Z,15.61
2023-04-29T08:55:13.999Z,15.64
2023-04-29T08:57:42.519Z,15.65
2023-04-29T09:00:11.016Z,15.69
2023-04-29T09:02:45.071Z,15.46
2023-04-29T09:05:12.896Z,15.40
2023-04-29T09:07:40.739Z,15.48
2023-04-29T09:10:08.755Z,15.49
2023-04-29T09:12:36.634Z,15.61
2023-04-29T09:15:04.630Z,15.72
2023-04-29T09:17:46.384Z,15.73
2023-04-29T09:20:23.537Z,15.91
2023-04-29T09:22:56.290Z,16.01
2023-04-29T09:25:24.471Z,16.07
2023-04-29T09:27:52.151Z,16.23
2023-04-29T09:30:20.141Z,16.49
2023-04-29T09:33:05.036Z,16.58
2023-04-29T09:35:32.400Z,16.49
2023-04-29T09:38:16.779Z,16.54
2023-04-29T09:40:58.193Z,16.82
2023-04-29T09:43:26.549Z,17.12
2023-04-29T09:45:54.214Z,17.12
2023-04-29T09:48:22.026Z,17.15
2023-04-29T09:51:02.621Z,17.33
2023-04-29T09:53:31.915Z,17.41
2023-04-29T09:56:01.808Z,17.69
2023-04-29T09:58:31.786Z,17.88
2023-04-29T10:01:01.410Z,18.15
2023-04-29T10:03:36.667Z,18.38
2023-04-29T10:06:05.937Z,18.51
2023-04-29T10:08:34.563Z,18.04
2023-04-29T10:11:03.508Z,18.06
2023-04-29T10:13:32.187Z,18.05
2023-04-29T10:16:20.614Z,18.14
2023-04-29T10:19:01.024Z,18.02
2023-04-29T10:21:33.518Z,18.36
2023-04-29T10:24:03.416Z,18.71
2023-04-29T10:26:32.460Z,19.19
2023-04-29T10:29:01.363Z,19.37
2023-04-29T10:31:30.663Z,19.53
2023-04-29T10:33:59.202Z,20.01
2023-04-29T10:36:28.296Z,20.35
2023-04-29T10:38:59.334Z,20.68
2023-04-29T10:41:29.203Z,20.86
2023-04-29T10:43:56.812Z,21.10
2023-04-29T10:46:28.678Z,21.01
2023-04-29T10:49:04.299Z,20.88
2023-04-29T10:51:43.598Z,20.77
2023-04-29T10:54:18.235Z,20.36
2023-04-29T10:56:52.955Z,20.39
2023-04-29T10:59:43.582Z,20.62
2023-04-29T11:02:11.353Z,21.53
2023-04-29T11:05:08.525Z,22.05
2023-04-29T11:07:36.596Z,21.90
2023-04-29T11:10:04.452Z,21.49
2023-04-29T11:12:32.238Z,21.31
2023-04-29T11:15:03.614Z,21.61
2023-04-29T11:17:38.911Z,22.02
2023-04-29T11:20:12.064Z,22.39
2023-04-29T11:22:40.543Z,22.75
2023-04-29T11:25:09.842Z,24.29
2023-04-29T11:27:42.610Z,25.96
2023-04-29T11:30:10.863Z,26.37
2023-04-29T11:32:46.103Z,27.53
2023-04-29T11:35:15.871Z,28.49
2023-04-29T11:37:45.261Z,29.12
2023-04-29T11:40:13.586Z,28.47
2023-04-29T11:42:43.254Z,28.60
2023-04-29T11:45:11.465Z,29.18
2023-04-29T11:47:43.651Z,29.22
2023-04-29T11:50:12.474Z,29.91
2023-04-29T11:52:41.994Z,29.14
2023-04-29T11:55:10.470Z,28.33
2023-04-29T11:57:39.533Z,27.39
2023-04-29T12:00:14.122Z,26.24
2023-04-29T12:02:45.635Z,26.05
2023-04-29T12:05:14.090Z,27.43
2023-04-29T12:07:42.236Z,28.39
2023-04-29T12:10:11.401Z,29.27
2023-04-29T12:12:41.414Z,29.50
2023-04-29T12:15:10.730Z,28.32
2023-04-29T12:17:39.352Z,27.59
2023-04-29T12:20:09.581Z,27.01
2023-04-29T12:22:37.285Z,27.24
2023-04-29T12:25:05.117Z,27.29
2023-04-29T12:27:34.883Z,26.78
2023-04-29T12:30:02.567Z,26.72
2023-04-29T12:32:30.323Z,26.45
2023-04-29T12:34:58.299Z,25.81
2023-04-29T12:37:26.329Z,25.26
2023-04-29T12:39:55.572Z,25.21
2023-04-29T12:42:23.740Z,24.63
2023-04-29T12:44:51.818Z,24.30
2023-04-29T12:47:19.656Z,24.34
2023-04-29T12:49:48.474Z,24.12
2023-04-29T12:52:16.310Z,24.00
2023-04-29T12:54:44.402Z,23.90
2023-04-29T12:57:12.598Z,24.32
2023-04-29T12:59:43.578Z,24.15
2023-04-29T13:02:11.307Z,23.84
2023-04-29T13:04:40.220Z,23.89
2023-04-29T13:07:08.029Z,25.03
2023-04-29T13:09:38.419Z,26.67
2023-04-29T13:12:09.760Z,26.82
2023-04-29T13:14:37.447Z,27.07
2023-04-29T13:17:05.227Z,27.01
2023-04-29T13:19:49.641Z,27.24
2023-04-29T13:22:19.473Z,27.07
2023-04-29T13:24:47.703Z,27.60
2023-04-29T13:27:15.625Z,29.97
2023-04-29T13:29:43.613Z,30.62
2023-04-29T13:32:11.705Z,29.80
2023-04-29T13:34:40.962Z,31.21
2023-04-29T13:37:08.599Z,32.86
2023-04-29T13:39:38.372Z,33.62
2023-04-29T13:42:07.004Z,33.11
2023-04-29T13:44:49.765Z,34.43
2023-04-29T13:47:25.174Z,32.99
2023-04-29T13:50:33.958Z,32.27
2023-04-29T13:55:49.346Z,31.53
2023-04-29T13:58:43.609Z,30.61
2023-04-29T14:01:17.102Z,29.11
2023-04-29T14:03:36.318Z,28.36
2023-04-29T14:06:04.221Z,27.52
2023-04-29T14:08:32.070Z,28.34
2023-04-29T14:11:00.172Z,27.32
2023-04-29T14:13:27.617Z,27.49
2023-04-29T14:15:56.858Z,26.29
2023-04-29T14:18:24.618Z,27.23
2023-04-29T14:20:52.391Z,26.61
2023-04-29T14:23:19.799Z,25.99
2023-04-29T14:25:47.628Z,25.35
2023-04-29T14:28:15.630Z,24.86
2023-04-29T14:30:46.697Z,24.27
2023-04-29T14:33:14.641Z,23.92
2023-04-29T14:35:42.629Z,23.41
2023-04-29T14:38:10.090Z,23.00
2023-04-29T14:40:39.395Z,22.83
2023-04-29T14:43:06.976Z,22.69
2023-04-29T14:45:34.584Z,22.42
2023-04-29T14:48:02.425Z,22.31
2023-04-29T14:50:30.305Z,22.08
2023-04-29T14:52:58.563Z,21.97
2023-04-29T14:55:26.094Z,21.80
2023-04-29T14:57:53.981Z,21.56
2023-04-29T15:00:21.641Z,21.65
2023-04-29T15:02:51.031Z,21.68
2023-04-29T15:05:18.799Z,21.48
2023-04-29T15:07:46.646Z,21.49
2023-04-29T15:10:14.644Z,21.47
2023-04-29T15:12:42.647Z,21.67
2023-04-29T15:15:11.116Z,21.62
2023-04-29T15:17:39.109Z,21.44
2023-04-29T15:20:07.872Z,21.41
2023-04-29T15:22:35.879Z,21.39
2023-04-29T15:25:03.587Z,21.43
2023-04-29T15:27:31.004Z,21.72
2023-04-29T15:29:58.690Z,21.91
2023-04-29T15:32:31.760Z,21.98
2023-04-29T15:35:00.661Z,22.05
2023-04-29T15:37:29.542Z,21.99
2023-04-29T15:39:59.539Z,21.89
2023-04-29T15:42:27.434Z,21.47
2023-04-29T15:44:55.369Z,21.43
2023-04-29T15:47:23.184Z,21.35
2023-04-29T15:49:52.432Z,21.34
2023-04-29T15:52:20.670Z,21.22
2023-04-29T15:54:48.687Z,21.11
2023-04-29T15:57:16.670Z,21.06
2023-04-29T15:59:44.231Z,21.01
2023-04-29T16:02:12.370Z,20.75
2023-04-29T16:04:39.616Z,20.59
2023-04-29T16:07:07.448Z,20.29
2023-04-29T16:09:35.768Z,20.15
2023-04-29T16:12:03.906Z,20.09
2023-04-29T16:14:31.684Z,19.90
2023-04-29T16:16:59.688Z,19.75
2023-04-29T16:19:27.458Z,19.54
2023-04-29T16:21:55.682Z,19.38
2023-04-29T16:24:23.574Z,19.22
2023-04-29T16:26:51.691Z,19.05
2023-04-29T16:29:20.046Z,18.82
2023-04-29T16:31:47.805Z,18.76
2023-04-29T16:34:15.754Z,18.65
2023-04-29T16:36:43.694Z,18.58
2023-04-29T16:39:11.693Z,18.41
2023-04-29T16:41:39.696Z,18.41
2023-04-29T16:44:07.629Z,18.34
2023-04-29T16:46:36.274Z,18.14
2023-04-29T16:49:04.465Z,18.15
2023-04-29T16:51:33.718Z,18.08
2023-04-29T16:54:01.708Z,18.04
2023-04-29T16:56:29.721Z,18.03
2023-04-29T16:58:57.746Z,18.03
2023-04-29T17:01:25.386Z,17.92
2023-04-29T17:03:52.766Z,17.85
2023-04-29T17:06:20.454Z,17.81
2023-04-29T17:08:50.797Z,17.70
2023-04-29T17:11:18.814Z,17.51
2023-04-29T17:13:46.727Z,17.33
2023-04-29T17:16:15.126Z,17.13
2023-04-29T17:18:42.793Z,16.94
2023-04-29T17:21:10.523Z,16.77
2023-04-29T17:23:38.278Z,16.61
2023-04-29T17:26:05.891Z,16.46
2023-04-29T17:28:33.611Z,16.25
2023-04-29T17:31:02.611Z,16.11
2023-04-29T17:33:38.783Z,15.98
2023-04-29T17:36:06.722Z,15.87
2023-04-29T17:38:34.479Z,15.77
2023-04-29T17:41:02.648Z,15.64
2023-04-29T17:43:32.740Z,15.53
2023-04-29T17:46:00.517Z,15.39
2023-04-29T17:48:28.289Z,15.27
2023-04-29T17:50:56.183Z,15.19
2023-04-29T17:53:24.097Z,15.04
2023-04-29T17:55:51.736Z,14.92
2023-04-29T17:58:19.804Z,14.83
2023-04-29T18:00:48.150Z,14.74
2023-04-29T18:03:16.180Z,14.62
2023-04-29T18:05:46.738Z,14.49
2023-04-29T18:08:14.739Z,14.38
2023-04-29T18:10:42.740Z,14.27
2023-04-29T18:13:10.745Z,14.21
2023-04-29T18:15:38.411Z,14.13
2023-04-29T18:18:05.796Z,14.03
2023-04-29T18:20:33.743Z,13.98
2023-04-29T18:23:01.498Z,13.90
2023-04-29T18:25:29.060Z,13.85
2023-04-29T18:28:07.724Z,13.83
2023-04-29T18:30:40.654Z,13.80
2023-04-29T18:33:08.697Z,13.78
2023-04-29T18:35:36.749Z,13.79
2023-04-29T18:38:04.655Z,13.77
2023-04-29T18:40:32.661Z,13.79
2023-04-29T18:43:00.483Z,13.76
2023-04-29T18:45:27.794Z,13.69
2023-04-29T18:47:56.080Z,13.57
2023-04-29T18:50:24.129Z,13.56
2023-04-29T18:52:51.764Z,13.54
2023-04-29T18:55:19.757Z,13.50
2023-04-29T18:57:47.585Z,13.49
2023-04-29T19:00:16.649Z,13.46
2023-04-29T19:02:44.793Z,13.40
2023-04-29T19:05:13.864Z,13.30
2023-04-29T19:07:41.764Z,13.25
2023-04-29T19:10:10.521Z,13.18
2023-04-29T19:12:38.238Z,13.07
2023-04-29T19:15:07.130Z,12.99
2023-04-29T19:17:34.680Z,13.08
2023-04-29T19:20:02.527Z,13.05
2023-04-29T19:22:30.506Z,13.06
2023-04-29T19:24:58.512Z,13.15
2023-04-29T19:27:25.856Z,13.21
2023-04-29T19:29:53.936Z,13.22
2023-04-29T19:32:21.776Z,13.25
2023-04-29T19:34:49.515Z,13.27
2023-04-29T19:37:16.960Z,13.31
2023-04-29T19:39:44.866Z,13.30
2023-04-29T19:42:12.783Z,13.25
2023-04-29T19:44:40.870Z,13.19
2023-04-29T19:47:08.796Z,13.23
2023-04-29T19:49:37.525Z,13.30
2023-04-29T19:52:06.965Z,13.30
2023-04-29T19:54:38.178Z,13.27
2023-04-29T19:57:06.172Z,13.22
2023-04-29T19:59:33.882Z,13.14
2023-04-29T20:02:01.729Z,13.11
2023-04-29T20:04:30.175Z,13.05
2023-04-29T20:06:57.894Z,13.03
2023-04-29T20:09:26.748Z,12.99
2023-04-29T20:11:54.531Z,12.82
2023-04-29T20:14:22.501Z,12.66
2023-04-29T20:16:50.085Z,12.62
2023-04-29T20:19:18.181Z,12.53
2023-04-29T20:21:45.891Z,12.48
2023-04-29T20:24:13.745Z,12.37
2023-04-29T20:26:41.535Z,12.33
2023-04-29T20:29:09.185Z,12.27
2023-04-29T20:31:36.690Z,12.20
2023-04-29T20:34:04.659Z,12.01
2023-04-29T20:36:31.950Z,11.93
2023-04-29T20:38:59.903Z,11.87
2023-04-29T20:41:29.537Z,11.74
2023-04-29T20:43:58.904Z,11.75
2023-04-29T20:46:26.812Z,11.73
2023-04-29T20:48:54.627Z,11.74
2023-04-29T20:51:22.642Z,11.70
2023-04-29T20:53:50.773Z,11.76
2023-04-29T20:56:18.636Z,11.83
2023-04-29T20:58:46.769Z,11.81
2023-04-29T21:01:14.921Z,11.82
2023-04-29T21:03:42.924Z,11.83
2023-04-29T21:06:10.843Z,11.81
2023-04-29T21:08:38.573Z,11.88
2023-04-29T21:11:07.819Z,11.94
2023-04-29T21:13:35.560Z,11.98
2023-04-29T21:16:03.894Z,11.95
2023-04-29T21:18:31.759Z,11.88
2023-04-29T21:20:59.780Z,11.94
2023-04-29T21:23:27.404Z,11.99
2023-04-29T21:25:54.931Z,12.07
2023-04-29T21:28:22.839Z,12.11
2023-04-29T21:30:51.234Z,12.19
2023-04-29T21:33:18.845Z,12.23
2023-04-29T21:35:51.709Z,12.27
2023-04-29T21:38:19.566Z,12.31
2023-04-29T21:40:48.327Z,12.33
2023-04-29T21:43:16.860Z,12.36
2023-04-29T21:45:45.057Z,12.37
2023-04-29T21:48:17.571Z,12.39
2023-04-29T21:50:46.237Z,12.37
2023-04-29T21:53:16.393Z,12.38
2023-04-29T21:55:44.570Z,12.37
2023-04-29T21:58:12.452Z,12.41
2023-04-29T22:00:48.010Z,12.43
2023-04-29T22:03:17.349Z,12.46
2023-04-29T22:05:44.950Z,12.50
2023-04-29T22:08:12.434Z,12.48
2023-04-29T22:10:41.790Z,12.47
2023-04-29T22:13:09.574Z,12.50
2023-04-29T22:15:36.889Z,12.55
2023-04-29T22:18:04.605Z,12.55
2023-04-29T22:20:32.171Z,12.58
2023-04-29T22:22:59.959Z,12.62
2023-04-29T22:25:27.809Z,12.64
2023-04-29T22:27:55.879Z,12.61
2023-04-29T22:30:23.577Z,12.64
2023-04-29T22:32:51.376Z,12.56
2023-04-29T22:35:19.258Z,12.57
2023-04-29T22:37:46.869Z,12.62
2023-04-29T22:40:14.600Z,12.62
2023-04-29T22:42:43.382Z,12.59
2023-04-29T22:45:12.582Z,12.64
2023-04-29T22:47:40.635Z,12.62
2023-04-29T22:50:08.362Z,12.61
2023-04-29T22:52:36.607Z,12.58
2023-04-29T22:55:04.589Z,12.59
2023-04-29T22:57:32.245Z,12.58
2023-04-29T23:00:00.022Z,12.48
2023-04-29T23:02:29.868Z,12.54
2023-04-29T23:04:58.681Z,12.53
2023-04-29T23:07:26.385Z,12.61
2023-04-29T23:09:54.034Z,12.62
2023-04-29T23:12:21.988Z,12.64
2023-04-29T23:14:50.993Z,12.61
2023-04-29T23:17:18.990Z,12.61
2023-04-29T23:19:46.789Z,12.59
2023-04-29T23:22:14.604Z,12.58
2023-04-29T23:24:42.005Z,12.52
2023-04-29T23:27:09.596Z,12.52
2023-04-29T23:29:37.294Z,12.41
2023-04-29T23:32:05.005Z,12.47
2023-04-29T23:34:32.477Z,12.53
2023-04-29T23:37:01.584Z,12.51
2023-04-29T23:39:29.001Z,12.46
2023-04-29T23:41:57.003Z,12.40
2023-04-29T23:44:25.602Z,12.20
2023-04-29T23:46:54.006Z,12.13
2023-04-29T23:49:21.605Z,12.09
2023-04-29T23:51:49.308Z,12.02
2023-04-29T23:54:17.021Z,11.94
2023-04-29T23:56:44.909Z,11.84
2023-04-29T23:59:12.400Z,11.71
